sensor_id;sensor_type;location;lat;lon;timestamp;pressure;altitude;pressure_sealevel;temperature;humidity
4392;BME280;2210;51.938;8.488;2022-08-05T00:00:23;100345.66;;;22.80;99.19
4392;BME280;2210;51.938;8.488;2022-08-05T00:04:24;100331.25;;;22.73;100.00
4392;BME280;2210;51.938;8.488;2022-08-05T00:08:24;100334.53;;;22.66;100.00
4392;BME280;2210;51.938;8.488;2022-08-05T00:12:24;100334.56;;;22.75;100.00
4392;BME280;2210;51.938;8.488;2022-08-05T00:16:24;100318.81;;;22.65;99.01
4392;BME280;2210;51.938;8.488;2022-08-05T00:20:25;100313.03;;;22.62;100.00
4392;BME280;2210;51.938;8.488;2022-08-05T00:24:25;100313.09;;;22.79;97.70
4392;BME280;2210;51.938;8.488;2022-08-05T00:28:25;100344.34;;;22.86;95.89
4392;BME280;2210;51.938;8.488;2022-08-05T00:32:26;100324.81;;;22.81;95.68
4392;BME280;2210;51.938;8.488;2022-08-05T00:36:26;100315.56;;;22.81;94.10
4392;BME280;2210;51.938;8.488;2022-08-05T00:40:27;100332.44;;;22.81;92.98
4392;BME280;2210;51.938;8.488;2022-08-05T00:44:27;100368.78;;;22.77;92.84
4392;BME280;2210;51.938;8.488;2022-08-05T00:48:28;100349.13;;;22.77;91.84
4392;BME280;2210;51.938;8.488;2022-08-05T00:52:28;100246.47;;;22.39;94.67
4392;BME280;2210;51.938;8.488;2022-08-05T00:56:28;100239.34;;;22.02;100.00
4392;BME280;2210;51.938;8.488;2022-08-05T01:00:29;100222.72;;;21.37;100.00
4392;BME280;2210;51.938;8.488;2022-08-05T01:04:30;100235.66;;;21.25;100.00
4392;BME280;2210;51.938;8.488;2022-08-05T01:08:30;100241.06;;;21.21;100.00
4392;BME280;2210;51.938;8.488;2022-08-05T01:12:30;100250.44;;;21.16;100.00
4392;BME280;2210;51.938;8.488;2022-08-05T01:16:42;100261.97;;;21.01;100.00
4392;BME280;2210;51.938;8.488;2022-08-05T01:20:58;100257.81;;;21.35;100.00
4392;BME280;2210;51.938;8.488;2022-08-05T01:29:37;100223.09;;;20.85;100.00
4392;BME280;2210;51.938;8.488;2022-08-05T01:34:02;100213.53;;;20.59;100.00
4392;BME280;2210;51.938;8.488;2022-08-05T01:38:04;100213.97;;;20.52;100.00
4392;BME280;2210;51.938;8.488;2022-08-05T01:42:07;100208.88;;;20.54;100.00
4392;BME280;2210;51.938;8.488;2022-08-05T01:46:10;100214.06;;;20.75;100.00
4392;BME280;2210;51.938;8.488;2022-08-05T01:50:16;100213.66;;;20.67;100.00
4392;BME280;2210;51.938;8.488;2022-08-05T01:54:18;100219.53;;;20.66;100.00
4392;BME280;2210;51.938;8.488;2022-08-05T01:58:21;100232.41;;;20.67;100.00
4392;BME280;2210;51.938;8.488;2022-08-05T02:02:26;100246.56;;;20.76;100.00
4392;BME280;2210;51.938;8.488;2022-08-05T02:06:27;100234.94;;;20.68;100.00
4392;BME280;2210;51.938;8.488;2022-08-05T02:10:33;100243.19;;;20.87;100.00
4392;BME280;2210;51.938;8.488;2022-08-05T02:14:59;100235.97;;;20.72;100.00
4392;BME280;2210;51.938;8.488;2022-08-05T02:19:05;100245.69;;;21.03;100.00
4392;BME280;2210;51.938;8.488;2022-08-05T02:23:09;100243.78;;;21.12;100.00
4392;BME280;2210;51.938;8.488;2022-08-05T02:27:11;100255.81;;;21.13;100.00
4392;BME280;2210;51.938;8.488;2022-08-05T02:31:20;100268.97;;;21.26;100.00
4392;BME280;2210;51.938;8.488;2022-08-05T02:35:23;100283.03;;;21.12;100.00
4392;BME280;2210;51.938;8.488;2022-08-05T02:39:24;100285.84;;;21.12;100.00
4392;BME280;2210;51.938;8.488;2022-08-05T02:43:27;100282.72;;;21.14;100.00
4392;BME280;2210;51.938;8.488;2022-08-05T02:47:29;100280.72;;;21.14;100.00
4392;BME280;2210;51.938;8.488;2022-08-05T02:51:32;100268.06;;;21.17;100.00
4392;BME280;2210;51.938;8.488;2022-08-05T02:55:34;100265.59;;;21.15;100.00
4392;BME280;2210;51.938;8.488;2022-08-05T02:59:35;100260.72;;;21.07;100.00
4392;BME280;2210;51.938;8.488;2022-08-05T03:03:38;100256.69;;;20.99;100.00
4392;BME280;2210;51.938;8.488;2022-08-05T03:07:40;100260.84;;;21.02;100.00
4392;BME280;2210;51.938;8.488;2022-08-05T03:11:42;100265.50;;;20.93;100.00
4392;BME280;2210;51.938;8.488;2022-08-05T03:15:46;100253.59;;;20.87;100.00
4392;BME280;2210;51.938;8.488;2022-08-05T03:19:47;100266.19;;;20.76;100.00
4392;BME280;2210;51.938;8.488;2022-08-05T03:23:47;100280.38;;;20.79;100.00
4392;BME280;2210;51.938;8.488;2022-08-05T03:27:49;100289.56;;;20.66;100.00
4392;BME280;2210;51.938;8.488;2022-08-05T03:31:49;100299.88;;;20.57;100.00
4392;BME280;2210;51.938;8.488;2022-08-05T03:35:50;100315.22;;;20.59;100.00
4392;BME280;2210;51.938;8.488;2022-08-05T03:39:53;100304.31;;;20.58;100.00
4392;BME280;2210;51.938;8.488;2022-08-05T03:43:54;100315.81;;;20.42;100.00
4392;BME280;2210;51.938;8.488;2022-08-05T03:47:54;100327.25;;;20.46;100.00
4392;BME280;2210;51.938;8.488;2022-08-05T03:51:57;100333.66;;;20.46;100.00
4392;BME280;2210;51.938;8.488;2022-08-05T04:00:35;100351.25;;;20.33;100.00
4392;BME280;2210;51.938;8.488;2022-08-05T04:04:36;100349.25;;;20.19;100.00
4392;BME280;2210;51.938;8.488;2022-08-05T04:08:38;100331.00;;;20.08;100.00
4392;BME280;2210;51.938;8.488;2022-08-05T04:12:39;100335.06;;;20.16;100.00
4392;BME280;2210;51.938;8.488;2022-08-05T04:16:39;100346.69;;;20.23;100.00
4392;BME280;2210;51.938;8.488;2022-08-05T04:20:39;100341.72;;;20.20;100.00
4392;BME280;2210;51.938;8.488;2022-08-05T04:24:42;100333.16;;;20.11;100.00
4392;BME280;2210;51.938;8.488;2022-08-05T04:28:42;100334.09;;;20.07;100.00
4392;BME280;2210;51.938;8.488;2022-08-05T04:32:43;100345.59;;;20.05;100.00
4392;BME280;2210;51.938;8.488;2022-08-05T04:36:43;100380.50;;;20.27;100.00
4392;BME280;2210;51.938;8.488;2022-08-05T04:40:43;100389.75;;;20.41;100.00
4392;BME280;2210;51.938;8.488;2022-08-05T04:44:43;100343.22;;;19.41;100.00
4392;BME280;2210;51.938;8.488;2022-08-05T04:48:44;100370.88;;;19.62;100.00
4392;BME280;2210;51.938;8.488;2022-08-05T04:52:44;100372.84;;;19.80;100.00
4392;BME280;2210;51.938;8.488;2022-08-05T04:56:44;100355.47;;;19.83;100.00
4392;BME280;2210;51.938;8.488;2022-08-05T05:00:45;100331.94;;;19.46;100.00
4392;BME280;2210;51.938;8.488;2022-08-05T05:04:45;100320.75;;;19.27;100.00
4392;BME280;2210;51.938;8.488;2022-08-05T05:08:45;100309.72;;;19.36;100.00
4392;BME280;2210;51.938;8.488;2022-08-05T05:12:46;100316.13;;;19.55;100.00
4392;BME280;2210;51.938;8.488;2022-08-05T05:16:46;100299.00;;;19.43;100.00
4392;BME280;2210;51.938;8.488;2022-08-05T05:20:46;100275.03;;;19.37;100.00
4392;BME280;2210;51.938;8.488;2022-08-05T05:24:47;100254.03;;;19.20;100.00
4392;BME280;2210;51.938;8.488;2022-08-05T05:28:47;100243.84;;;19.11;100.00
4392;BME280;2210;51.938;8.488;2022-08-05T05:32:47;100252.75;;;18.94;100.00
4392;BME280;2210;51.938;8.488;2022-08-05T05:36:48;100257.28;;;18.90;100.00
4392;BME280;2210;51.938;8.488;2022-08-05T05:40:48;100263.78;;;18.80;100.00
4392;BME280;2210;51.938;8.488;2022-08-05T05:44:48;100282.97;;;18.86;100.00
4392;BME280;2210;51.938;8.488;2022-08-05T05:48:48;100301.69;;;18.91;100.00
4392;BME280;2210;51.938;8.488;2022-08-05T05:52:49;100323.00;;;19.06;100.00
4392;BME280;2210;51.938;8.488;2022-08-05T05:56:49;100334.28;;;19.39;100.00
4392;BME280;2210;51.938;8.488;2022-08-05T06:00:49;100368.81;;;19.48;100.00
4392;BME280;2210;51.938;8.488;2022-08-05T06:04:49;100387.47;;;19.34;100.00
4392;BME280;2210;51.938;8.488;2022-08-05T06:08:50;100398.25;;;19.21;100.00
4392;BME280;2210;51.938;8.488;2022-08-05T06:12:50;100384.16;;;19.32;100.00
4392;BME280;2210;51.938;8.488;2022-08-05T06:16:50;100401.06;;;19.41;100.00
4392;BME280;2210;51.938;8.488;2022-08-05T06:20:50;100395.47;;;19.41;100.00
4392;BME280;2210;51.938;8.488;2022-08-05T06:24:51;100373.09;;;19.21;100.00
4392;BME280;2210;51.938;8.488;2022-08-05T06:28:52;100362.66;;;19.27;100.00
4392;BME280;2210;51.938;8.488;2022-08-05T06:32:52;100355.44;;;19.26;100.00
4392;BME280;2210;51.938;8.488;2022-08-05T06:36:52;100338.25;;;19.33;100.00
4392;BME280;2210;51.938;8.488;2022-08-05T06:40:52;100342.72;;;19.34;100.00
4392;BME280;2210;51.938;8.488;2022-08-05T06:44:53;100317.19;;;19.21;100.00
4392;BME280;2210;51.938;8.488;2022-08-05T06:48:53;100312.13;;;19.04;100.00
4392;BME280;2210;51.938;8.488;2022-08-05T06:52:53;100318.41;;;19.15;100.00
4392;BME280;2210;51.938;8.488;2022-08-05T06:56:53;100329.44;;;19.26;100.00
4392;BME280;2210;51.938;8.488;2022-08-05T07:00:54;100343.34;;;19.31;100.00
4392;BME280;2210;51.938;8.488;2022-08-05T07:04:56;100349.75;;;19.31;100.00
4392;BME280;2210;51.938;8.488;2022-08-05T07:08:57;100342.91;;;19.43;100.00
4392;BME280;2210;51.938;8.488;2022-08-05T07:12:57;100343.78;;;19.38;100.00
4392;BME280;2210;51.938;8.488;2022-08-05T07:17:16;100346.88;;;19.17;100.00
4392;BME280;2210;51.938;8.488;2022-08-05T07:21:16;100337.44;;;19.13;100.00
4392;BME280;2210;51.938;8.488;2022-08-05T07:25:17;100344.81;;;19.04;100.00
4392;BME280;2210;51.938;8.488;2022-08-05T07:29:17;100345.06;;;19.08;100.00
4392;BME280;2210;51.938;8.488;2022-08-05T07:33:17;100363.13;;;19.15;100.00
4392;BME280;2210;51.938;8.488;2022-08-05T07:37:20;100368.56;;;19.26;100.00
4392;BME280;2210;51.938;8.488;2022-08-05T07:41:22;100367.94;;;19.29;100.00
4392;BME280;2210;51.938;8.488;2022-08-05T07:45:22;100380.47;;;19.12;100.00
4392;BME280;2210;51.938;8.488;2022-08-05T07:49:22;100388.75;;;18.98;100.00
4392;BME280;2210;51.938;8.488;2022-08-05T07:53:23;100390.78;;;18.87;100.00
4392;BME280;2210;51.938;8.488;2022-08-05T07:57:23;100387.69;;;18.65;100.00
4392;BME280;2210;51.938;8.488;2022-08-05T08:01:23;100398.84;;;18.65;100.00
4392;BME280;2210;51.938;8.488;2022-08-05T08:05:25;100408.84;;;18.71;100.00
4392;BME280;2210;51.938;8.488;2022-08-05T08:09:26;100408.91;;;18.66;100.00
4392;BME280;2210;51.938;8.488;2022-08-05T08:13:27;100405.63;;;18.59;100.00
4392;BME280;2210;51.938;8.488;2022-08-05T08:17:27;100394.69;;;18.62;100.00
4392;BME280;2210;51.938;8.488;2022-08-05T08:21:27;100395.63;;;18.52;100.00
4392;BME280;2210;51.938;8.488;2022-08-05T08:25:28;100400.19;;;18.43;100.00
4392;BME280;2210;51.938;8.488;2022-08-05T08:29:28;100394.75;;;18.28;100.00
4392;BME280;2210;51.938;8.488;2022-08-05T08:33:29;100395.19;;;18.40;100.00
4392;BME280;2210;51.938;8.488;2022-08-05T08:37:29;100389.94;;;18.33;100.00
4392;BME280;2210;51.938;8.488;2022-08-05T08:41:32;100395.97;;;18.46;100.00
4392;BME280;2210;51.938;8.488;2022-08-05T08:45:34;100406.38;;;18.35;100.00
4392;BME280;2210;51.938;8.488;2022-08-05T08:49:37;100459.53;;;18.54;100.00
4392;BME280;2210;51.938;8.488;2022-08-05T08:53:43;100508.41;;;18.51;100.00
4392;BME280;2210;51.938;8.488;2022-08-05T08:57:44;100477.66;;;18.57;100.00
4392;BME280;2210;51.938;8.488;2022-08-05T09:01:46;100487.78;;;18.47;100.00
4392;BME280;2210;51.938;8.488;2022-08-05T09:05:46;100487.16;;;18.56;100.00
4392;BME280;2210;51.938;8.488;2022-08-05T09:09:47;100495.91;;;18.49;100.00
4392;BME280;2210;51.938;8.488;2022-08-05T09:13:47;100512.53;;;18.25;100.00
4392;BME280;2210;51.938;8.488;2022-08-05T09:17:49;100513.63;;;18.29;100.00
4392;BME280;2210;51.938;8.488;2022-08-05T09:21:50;100518.28;;;18.44;100.00
4392;BME280;2210;51.938;8.488;2022-08-05T09:25:52;100530.28;;;18.39;100.00
4392;BME280;2210;51.938;8.488;2022-08-05T09:30:04;100529.16;;;18.45;100.00
4392;BME280;2210;51.938;8.488;2022-08-05T09:34:07;100524.78;;;18.34;100.00
4392;BME280;2210;51.938;8.488;2022-08-05T09:38:08;100523.75;;;18.54;100.00
4392;BME280;2210;51.938;8.488;2022-08-05T09:42:08;100515.81;;;18.37;100.00
4392;BME280;2210;51.938;8.488;2022-08-05T09:46:30;100528.09;;;18.36;100.00
4392;BME280;2210;51.938;8.488;2022-08-05T09:50:36;100515.81;;;18.37;100.00
4392;BME280;2210;51.938;8.488;2022-08-05T09:54:36;100531.25;;;18.64;100.00
4392;BME280;2210;51.938;8.488;2022-08-05T09:58:36;100525.25;;;18.46;100.00
4392;BME280;2210;51.938;8.488;2022-08-05T10:02:42;100529.91;;;18.56;100.00
4392;BME280;2210;51.938;8.488;2022-08-05T10:06:56;100538.28;;;18.56;100.00
4392;BME280;2210;51.938;8.488;2022-08-05T10:10:57;100540.31;;;18.45;100.00
4392;BME280;2210;51.938;8.488;2022-08-05T10:15:20;100535.81;;;18.49;100.00
4392;BME280;2210;51.938;8.488;2022-08-05T10:19:22;100552.59;;;18.44;100.00
4392;BME280;2210;51.938;8.488;2022-08-05T10:23:25;100558.75;;;18.46;100.00
4392;BME280;2210;51.938;8.488;2022-08-05T10:27:26;100568.38;;;18.25;100.00
4392;BME280;2210;51.938;8.488;2022-08-05T10:31:26;100576.50;;;18.16;100.00
4392;BME280;2210;51.938;8.488;2022-08-05T10:35:27;100583.66;;;18.32;100.00
4392;BME280;2210;51.938;8.488;2022-08-05T10:39:32;100608.44;;;18.39;100.00
4392;BME280;2210;51.938;8.488;2022-08-05T10:47:44;100614.66;;;18.31;100.00
4392;BME280;2210;51.938;8.488;2022-08-05T10:51:50;100619.19;;;18.16;100.00
4392;BME280;2210;51.938;8.488;2022-08-05T10:56:05;100635.97;;;18.11;100.00
4392;BME280;2210;51.938;8.488;2022-08-05T11:00:09;100639.25;;;18.18;100.00
4392;BME280;2210;51.938;8.488;2022-08-05T11:04:11;100650.94;;;18.31;100.00
4392;BME280;2210;51.938;8.488;2022-08-05T11:08:11;100654.03;;;18.19;100.00
4392;BME280;2210;51.938;8.488;2022-08-05T11:16:39;100658.28;;;18.16;100.00
4392;BME280;2210;51.938;8.488;2022-08-05T11:20:42;100656.00;;;18.18;100.00
4392;BME280;2210;51.938;8.488;2022-08-05T11:24:43;100666.00;;;18.30;100.00
4392;BME280;2210;51.938;8.488;2022-08-05T11:28:45;100675.22;;;18.35;100.00
4392;BME280;2210;51.938;8.488;2022-08-05T11:32:46;100673.63;;;18.14;100.00
4392;BME280;2210;51.938;8.488;2022-08-05T11:36:49;100682.22;;;18.23;100.00
4392;BME280;2210;51.938;8.488;2022-08-05T11:40:58;100689.47;;;18.34;100.00
4392;BME280;2210;51.938;8.488;2022-08-05T11:45:01;100695.56;;;18.41;100.00
4392;BME280;2210;51.938;8.488;2022-08-05T11:49:04;100703.34;;;18.49;100.00
4392;BME280;2210;51.938;8.488;2022-08-05T11:53:05;100710.09;;;18.38;100.00
4392;BME280;2210;51.938;8.488;2022-08-05T11:57:05;100716.72;;;18.47;100.00
4392;BME280;2210;51.938;8.488;2022-08-05T12:01:08;100714.41;;;18.65;100.00
4392;BME280;2210;51.938;8.488;2022-08-05T12:05:08;100728.94;;;18.67;100.00
4392;BME280;2210;51.938;8.488;2022-08-05T12:09:09;100715.03;;;18.57;100.00
4392;BME280;2210;51.938;8.488;2022-08-05T12:13:09;100726.69;;;18.69;100.00
4392;BME280;2210;51.938;8.488;2022-08-05T12:17:13;100731.78;;;18.57;100.00
4392;BME280;2210;51.938;8.488;2022-08-05T12:21:16;100734.03;;;18.54;100.00
4392;BME280;2210;51.938;8.488;2022-08-05T12:25:16;100731.66;;;18.77;100.00
4392;BME280;2210;51.938;8.488;2022-08-05T12:29:19;100725.84;;;18.68;100.00
4392;BME280;2210;51.938;8.488;2022-08-05T12:33:19;100735.63;;;18.71;100.00
4392;BME280;2210;51.938;8.488;2022-08-05T12:37:20;100742.91;;;18.67;100.00
4392;BME280;2210;51.938;8.488;2022-08-05T12:41:20;100745.38;;;18.74;100.00
4392;BME280;2210;51.938;8.488;2022-08-05T12:45:20;100736.09;;;18.83;100.00
4392;BME280;2210;51.938;8.488;2022-08-05T12:49:21;100739.75;;;18.89;100.00
4392;BME280;2210;51.938;8.488;2022-08-05T12:53:21;100746.41;;;18.93;100.00
4392;BME280;2210;51.938;8.488;2022-08-05T12:57:21;100748.91;;;18.95;100.00
4392;BME280;2210;51.938;8.488;2022-08-05T13:01:22;100744.03;;;19.16;100.00
4392;BME280;2210;51.938;8.488;2022-08-05T13:05:23;100747.66;;;19.16;100.00
4392;BME280;2210;51.938;8.488;2022-08-05T13:09:24;100759.09;;;19.25;100.00
4392;BME280;2210;51.938;8.488;2022-08-05T13:13:28;100754.25;;;19.36;100.00
4392;BME280;2210;51.938;8.488;2022-08-05T13:17:31;100758.63;;;19.47;100.00
4392;BME280;2210;51.938;8.488;2022-08-05T13:21:31;100765.66;;;19.40;100.00
4392;BME280;2210;51.938;8.488;2022-08-05T13:25:31;100772.25;;;19.59;100.00
4392;BME280;2210;51.938;8.488;2022-08-05T13:29:32;100789.31;;;19.58;100.00
4392;BME280;2210;51.938;8.488;2022-08-05T13:33:32;100789.75;;;19.75;100.00
4392;BME280;2210;51.938;8.488;2022-08-05T13:37:32;100799.78;;;19.76;100.00
4392;BME280;2210;51.938;8.488;2022-08-05T13:41:33;100790.00;;;19.74;100.00
4392;BME280;2210;51.938;8.488;2022-08-05T13:45:34;100790.91;;;19.69;100.00
4392;BME280;2210;51.938;8.488;2022-08-05T13:49:34;100810.16;;;19.81;100.00
4392;BME280;2210;51.938;8.488;2022-08-05T13:53:35;100805.38;;;19.76;100.00
4392;BME280;2210;51.938;8.488;2022-08-05T13:57:36;100809.28;;;19.80;100.00
4392;BME280;2210;51.938;8.488;2022-08-05T14:01:37;100808.31;;;19.95;100.00
4392;BME280;2210;51.938;8.488;2022-08-05T14:05:37;100812.44;;;20.03;100.00
4392;BME280;2210;51.938;8.488;2022-08-05T14:09:37;100805.78;;;19.99;100.00
4392;BME280;2210;51.938;8.488;2022-08-05T14:13:38;100801.84;;;20.00;98.48
4392;BME280;2210;51.938;8.488;2022-08-05T14:17:38;100807.94;;;20.07;100.00
4392;BME280;2210;51.938;8.488;2022-08-05T14:21:38;100813.00;;;20.05;100.00
4392;BME280;2210;51.938;8.488;2022-08-05T14:25:39;100814.13;;;20.04;98.38
4392;BME280;2210;51.938;8.488;2022-08-05T14:29:39;100806.44;;;20.20;97.88
4392;BME280;2210;51.938;8.488;2022-08-05T14:33:39;100809.31;;;20.39;96.36
4392;BME280;2210;51.938;8.488;2022-08-05T14:37:40;100804.81;;;20.38;93.26
4392;BME280;2210;51.938;8.488;2022-08-05T14:41:40;100814.31;;;20.42;92.76
4392;BME280;2210;51.938;8.488;2022-08-05T14:45:40;100811.84;;;20.35;94.70
4392;BME280;2210;51.938;8.488;2022-08-05T14:49:41;100808.63;;;20.23;94.48
4392;BME280;2210;51.938;8.488;2022-08-05T14:53:41;100813.75;;;20.16;96.00
4392;BME280;2210;51.938;8.488;2022-08-05T14:57:41;100805.59;;;20.44;95.82
4392;BME280;2210;51.938;8.488;2022-08-05T15:01:41;100820.72;;;20.67;92.48
4392;BME280;2210;51.938;8.488;2022-08-05T15:05:42;100819.66;;;20.63;84.71
4392;BME280;2210;51.938;8.488;2022-08-05T15:09:42;100825.94;;;20.54;87.51
4392;BME280;2210;51.938;8.488;2022-08-05T15:13:42;100824.84;;;20.50;92.85
4392;BME280;2210;51.938;8.488;2022-08-05T15:17:42;100828.91;;;20.39;90.63
4392;BME280;2210;51.938;8.488;2022-08-05T15:21:43;100828.56;;;20.46;88.63
4392;BME280;2210;51.938;8.488;2022-08-05T15:25:43;100835.09;;;20.60;87.17
4392;BME280;2210;51.938;8.488;2022-08-05T15:29:44;100826.34;;;20.67;89.28
4392;BME280;2210;51.938;8.488;2022-08-05T15:33:44;100816.25;;;20.66;87.46
4392;BME280;2210;51.938;8.488;2022-08-05T15:37:44;100824.66;;;20.66;87.63
4392;BME280;2210;51.938;8.488;2022-08-05T15:41:44;100818.66;;;20.53;89.46
4392;BME280;2210;51.938;8.488;2022-08-05T15:45:45;100818.22;;;20.41;90.00
4392;BME280;2210;51.938;8.488;2022-08-05T15:49:47;100818.84;;;20.62;88.70
4392;BME280;2210;51.938;8.488;2022-08-05T15:53:48;100820.72;;;20.67;86.64
4392;BME280;2210;51.938;8.488;2022-08-05T15:57:51;100826.34;;;20.67;87.76
4392;BME280;2210;51.938;8.488;2022-08-05T16:01:51;100823.94;;;20.55;89.40
4392;BME280;2210;51.938;8.488;2022-08-05T16:05:51;100826.94;;;20.64;88.59
4392;BME280;2210;51.938;8.488;2022-08-05T16:09:52;100829.03;;;20.53;87.08
4392;BME280;2210;51.938;8.488;2022-08-05T16:13:53;100831.72;;;20.63;87.12
4392;BME280;2210;51.938;8.488;2022-08-05T16:17:53;100832.53;;;20.64;84.98
4392;BME280;2210;51.938;8.488;2022-08-05T16:21:53;100824.13;;;20.64;83.97
4392;BME280;2210;51.938;8.488;2022-08-05T16:26:04;100826.47;;;20.57;81.80
4392;BME280;2210;51.938;8.488;2022-08-05T16:30:05;100836.34;;;20.49;71.70
4392;BME280;2210;51.938;8.488;2022-08-05T16:34:07;100833.13;;;20.36;66.57
4392;BME280;2210;51.938;8.488;2022-08-05T16:38:07;100838.91;;;20.45;58.33
4392;BME280;2210;51.938;8.488;2022-08-05T16:42:07;100838.91;;;20.45;58.79
4392;BME280;2210;51.938;8.488;2022-08-05T16:46:08;100839.28;;;20.63;58.37
4392;BME280;2210;51.938;8.488;2022-08-05T16:50:08;100851.44;;;20.82;53.20
4392;BME280;2210;51.938;8.488;2022-08-05T16:54:10;100847.59;;;20.73;55.47
4392;BME280;2210;51.938;8.488;2022-08-05T16:58:10;100853.97;;;20.79;53.24
4392;BME280;2210;51.938;8.488;2022-08-05T17:02:10;100860.72;;;20.78;53.44
4392;BME280;2210;51.938;8.488;2022-08-05T17:06:11;100862.81;;;20.62;51.31
4392;BME280;2210;51.938;8.488;2022-08-05T17:10:11;100865.84;;;20.41;56.26
4392;BME280;2210;51.938;8.488;2022-08-05T17:14:12;100871.94;;;20.48;53.70
4392;BME280;2210;51.938;8.488;2022-08-05T17:18:12;100881.53;;;20.42;55.14
4392;BME280;2210;51.938;8.488;2022-08-05T17:22:14;100886.34;;;20.36;54.70
4392;BME280;2210;51.938;8.488;2022-08-05T17:26:15;100895.59;;;20.32;57.34
4392;BME280;2210;51.938;8.488;2022-08-05T17:30:15;100909.19;;;20.14;60.48
4392;BME280;2210;51.938;8.488;2022-08-05T17:34:15;100908.09;;;20.10;59.84
4392;BME280;2210;51.938;8.488;2022-08-05T17:38:16;100924.41;;;20.03;62.57
4392;BME280;2210;51.938;8.488;2022-08-05T17:42:16;100925.59;;;19.97;61.12
4392;BME280;2210;51.938;8.488;2022-08-05T17:46:16;100932.06;;;19.87;61.34
4392;BME280;2210;51.938;8.488;2022-08-05T17:50:19;100930.72;;;19.79;57.24
4392;BME280;2210;51.938;8.488;2022-08-05T17:54:21;100942.47;;;19.76;56.15
4392;BME280;2210;51.938;8.488;2022-08-05T17:58:22;100945.88;;;19.68;56.85
4392;BME280;2210;51.938;8.488;2022-08-05T18:02:22;100945.38;;;19.61;56.41
4392;BME280;2210;51.938;8.488;2022-08-05T18:06:22;100954.84;;;19.70;55.63
4392;BME280;2210;51.938;8.488;2022-08-05T18:10:23;100964.94;;;19.66;56.29
4392;BME280;2210;51.938;8.488;2022-08-05T18:14:23;100969.53;;;19.41;55.69
4392;BME280;2210;51.938;8.488;2022-08-05T18:18:23;100976.78;;;19.42;56.94
4392;BME280;2210;51.938;8.488;2022-08-05T18:22:23;100984.38;;;19.31;55.05
4392;BME280;2210;51.938;8.488;2022-08-05T18:26:25;100993.03;;;19.35;55.29
4392;BME280;2210;51.938;8.488;2022-08-05T18:30:25;101000.31;;;19.31;56.38
4392;BME280;2210;51.938;8.488;2022-08-05T18:34:27;101000.63;;;19.19;55.33
4392;BME280;2210;51.938;8.488;2022-08-05T18:38:28;101010.69;;;19.10;57.72
4392;BME280;2210;51.938;8.488;2022-08-05T18:42:29;100995.91;;;19.04;55.95
4392;BME280;2210;51.938;8.488;2022-08-05T18:46:29;101017.19;;;18.90;61.98
4392;BME280;2210;51.938;8.488;2022-08-05T18:50:30;101030.03;;;18.80;63.23
4392;BME280;2210;51.938;8.488;2022-08-05T18:54:49;101033.38;;;18.67;64.18
4392;BME280;2210;51.938;8.488;2022-08-05T18:58:49;101038.94;;;18.57;64.67
4392;BME280;2210;51.938;8.488;2022-08-05T19:02:50;101044.25;;;18.43;67.15
4392;BME280;2210;51.938;8.488;2022-08-05T19:06:50;101050.09;;;18.36;67.01
4392;BME280;2210;51.938;8.488;2022-08-05T19:10:51;101055.41;;;18.27;67.67
4392;BME280;2210;51.938;8.488;2022-08-05T19:14:51;101056.75;;;18.14;69.99
4392;BME280;2210;51.938;8.488;2022-08-05T19:18:51;101063.16;;;18.05;68.85
4392;BME280;2210;51.938;8.488;2022-08-05T19:22:52;101065.91;;;17.94;71.37
4392;BME280;2210;51.938;8.488;2022-08-05T19:26:52;101073.94;;;17.85;72.84
4392;BME280;2210;51.938;8.488;2022-08-05T19:30:53;101075.56;;;17.76;73.54
4392;BME280;2210;51.938;8.488;2022-08-05T19:34:53;101083.09;;;17.70;72.62
4392;BME280;2210;51.938;8.488;2022-08-05T19:38:55;101093.63;;;17.63;71.78
4392;BME280;2210;51.938;8.488;2022-08-05T19:42:56;101100.88;;;17.59;73.35
4392;BME280;2210;51.938;8.488;2022-08-05T19:46:56;101107.56;;;17.63;73.86
4392;BME280;2210;51.938;8.488;2022-08-05T19:50:56;101116.69;;;17.48;71.49
4392;BME280;2210;51.938;8.488;2022-08-05T19:54:57;101118.03;;;17.35;73.09
4392;BME280;2210;51.938;8.488;2022-08-05T19:58:57;101129.41;;;17.29;74.06
4392;BME280;2210;51.938;8.488;2022-08-05T20:02:57;101134.94;;;17.24;77.88
4392;BME280;2210;51.938;8.488;2022-08-05T20:06:58;101148.66;;;16.98;80.43
4392;BME280;2210;51.938;8.488;2022-08-05T20:10:58;101148.09;;;16.96;81.00
4392;BME280;2210;51.938;8.488;2022-08-05T20:14:58;101153.06;;;16.94;82.72
4392;BME280;2210;51.938;8.488;2022-08-05T20:18:59;101153.34;;;16.92;82.30
4392;BME280;2210;51.938;8.488;2022-08-05T20:23:00;101171.69;;;16.61;84.62
4392;BME280;2210;51.938;8.488;2022-08-05T20:27:03;101171.47;;;16.67;83.87
4392;BME280;2210;51.938;8.488;2022-08-05T20:31:03;101173.31;;;16.57;86.02
4392;BME280;2210;51.938;8.488;2022-08-05T20:35:04;101182.59;;;16.67;88.47
4392;BME280;2210;51.938;8.488;2022-08-05T20:39:04;101188.59;;;16.54;86.31
4392;BME280;2210;51.938;8.488;2022-08-05T20:43:04;101198.88;;;16.54;87.35
4392;BME280;2210;51.938;8.488;2022-08-05T20:47:05;101202.31;;;16.61;89.55
4392;BME280;2210;51.938;8.488;2022-08-05T20:51:06;101210.84;;;16.54;90.75
4392;BME280;2210;51.938;8.488;2022-08-05T20:55:06;101216.22;;;16.61;89.49
4392;BME280;2210;51.938;8.488;2022-08-05T20:59:07;101223.28;;;16.46;89.61
4392;BME280;2210;51.938;8.488;2022-08-05T21:03:07;101224.59;;;16.39;90.71
4392;BME280;2210;51.938;8.488;2022-08-05T21:07:07;101225.44;;;16.39;91.71
4392;BME280;2210;51.938;8.488;2022-08-05T21:11:11;101223.81;;;16.43;88.96
4392;BME280;2210;51.938;8.488;2022-08-05T21:15:12;101221.47;;;16.35;89.35
4392;BME280;2210;51.938;8.488;2022-08-05T21:19:12;101225.00;;;16.25;89.85
4392;BME280;2210;51.938;8.488;2022-08-05T21:23:12;101231.91;;;16.23;90.39
4392;BME280;2210;51.938;8.488;2022-08-05T21:27:13;101238.19;;;16.13;88.15
4392;BME280;2210;51.938;8.488;2022-08-05T21:31:13;101228.91;;;16.07;88.68
4392;BME280;2210;51.938;8.488;2022-08-05T21:35:13;101235.44;;;15.96;90.88
4392;BME280;2210;51.938;8.488;2022-08-05T21:39:13;101228.25;;;16.00;91.35
4392;BME280;2210;51.938;8.488;2022-08-05T21:43:14;101237.59;;;15.94;90.28